sensor_id;sensor_type;location;lat;lon;timestamp;P1;durP1;ratioP1;P2;durP2;ratioP2
74900;SDS011;63461;51.416;6.758;2023-08-07T00:01:41;5.32;;;1.50;;
74900;SDS011;63461;51.416;6.758;2023-08-07T00:04:07;9.40;;;2.03;;
74900;SDS011;63461;51.416;6.758;2023-08-07T00:06:33;7.55;;;1.80;;
74900;SDS011;63461;51.416;6.758;2023-08-07T00:08:59;12.40;;;2.00;;
74900;SDS011;63461;51.416;6.758;2023-08-07T00:11:25;8.52;;;1.60;;
74900;SDS011;63461;51.416;6.758;2023-08-07T00:13:53;7.43;;;1.73;;
74900;SDS011;63461;51.416;6.758;2023-08-07T00:16:19;8.90;;;1.60;;
74900;SDS011;63461;51.416;6.758;2023-08-07T00:18:45;11.30;;;1.75;;
74900;SDS011;63461;51.416;6.758;2023-08-07T00:21:11;13.77;;;1.80;;
74900;SDS011;63461;51.416;6.758;2023-08-07T00:23:37;5.63;;;1.02;;
74900;SDS011;63461;51.416;6.758;2023-08-07T00:26:02;8.05;;;1.73;;
74900;SDS011;63461;51.416;6.758;2023-08-07T00:28:28;12.38;;;1.60;;
74900;SDS011;63461;51.416;6.758;2023-08-07T00:30:55;11.32;;;1.50;;
74900;SDS011;63461;51.416;6.758;2023-08-07T00:33:21;7.57;;;1.65;;
74900;SDS011;63461;51.416;6.758;2023-08-07T00:35:47;7.28;;;1.17;;
74900;SDS011;63461;51.416;6.758;2023-08-07T00:38:13;10.70;;;1.58;;
74900;SDS011;63461;51.416;6.758;2023-08-07T00:40:39;7.22;;;1.45;;
74900;SDS011;63461;51.416;6.758;2023-08-07T00:43:06;5.72;;;1.42;;
74900;SDS011;63461;51.416;6.758;2023-08-07T00:45:34;7.63;;;1.52;;
74900;SDS011;63461;51.416;6.758;2023-08-07T00:48:03;8.05;;;1.30;;
74900;SDS011;63461;51.416;6.758;2023-08-07T00:50:29;8.90;;;2.10;;
74900;SDS011;63461;51.416;6.758;2023-08-07T00:52:55;9.88;;;1.60;;
74900;SDS011;63461;51.416;6.758;2023-08-07T00:55:21;7.43;;;1.52;;
74900;SDS011;63461;51.416;6.758;2023-08-07T00:57:47;6.05;;;1.30;;
74900;SDS011;63461;51.416;6.758;2023-08-07T01:00:14;9.57;;;1.42;;
74900;SDS011;63461;51.416;6.758;2023-08-07T01:02:42;7.57;;;1.67;;
74900;SDS011;63461;51.416;6.758;2023-08-07T01:05:07;8.70;;;1.83;;
74900;SDS011;63461;51.416;6.758;2023-08-07T01:07:33;7.05;;;1.55;;
74900;SDS011;63461;51.416;6.758;2023-08-07T01:09:59;6.13;;;2.00;;
74900;SDS011;63461;51.416;6.758;2023-08-07T01:12:30;8.05;;;1.60;;
74900;SDS011;63461;51.416;6.758;2023-08-07T01:14:59;6.68;;;1.45;;
74900;SDS011;63461;51.416;6.758;2023-08-07T01:17:37;8.70;;;1.63;;
74900;SDS011;63461;51.416;6.758;2023-08-07T01:20:04;8.55;;;1.88;;
74900;SDS011;63461;51.416;6.758;2023-08-07T01:22:30;10.85;;;1.88;;
74900;SDS011;63461;51.416;6.758;2023-08-07T01:24:56;8.23;;;1.95;;
74900;SDS011;63461;51.416;6.758;2023-08-07T01:35:46;8.25;;;1.80;;
74900;SDS011;63461;51.416;6.758;2023-08-07T01:38:14;7.47;;;1.58;;
74900;SDS011;63461;51.416;6.758;2023-08-07T01:40:42;9.07;;;2.00;;
74900;SDS011;63461;51.416;6.758;2023-08-07T01:43:09;8.30;;;1.48;;
74900;SDS011;63461;51.416;6.758;2023-08-07T01:45:35;11.00;;;1.85;;
74900;SDS011;63461;51.416;6.758;2023-08-07T01:48:01;6.90;;;1.50;;
74900;SDS011;63461;51.416;6.758;2023-08-07T01:50:27;8.25;;;1.65;;
74900;SDS011;63461;51.416;6.758;2023-08-07T01:52:53;9.80;;;1.63;;
74900;SDS011;63461;51.416;6.758;2023-08-07T01:55:19;8.57;;;1.60;;
74900;SDS011;63461;51.416;6.758;2023-08-07T01:57:52;6.03;;;1.48;;
74900;SDS011;63461;51.416;6.758;2023-08-07T02:00:18;10.02;;;1.67;;
74900;SDS011;63461;51.416;6.758;2023-08-07T02:02:44;8.40;;;1.70;;
74900;SDS011;63461;51.416;6.758;2023-08-07T02:05:12;8.90;;;1.58;;
74900;SDS011;63461;51.416;6.758;2023-08-07T02:07:39;8.77;;;1.42;;
74900;SDS011;63461;51.416;6.758;2023-08-07T02:10:05;5.13;;;1.05;;
74900;SDS011;63461;51.416;6.758;2023-08-07T02:12:31;5.88;;;1.75;;
74900;SDS011;63461;51.416;6.758;2023-08-07T02:14:58;6.30;;;1.80;;
74900;SDS011;63461;51.416;6.758;2023-08-07T02:17:25;9.05;;;1.73;;
74900;SDS011;63461;51.416;6.758;2023-08-07T02:19:52;12.82;;;2.35;;
74900;SDS011;63461;51.416;6.758;2023-08-07T02:22:18;9.60;;;1.88;;
74900;SDS011;63461;51.416;6.758;2023-08-07T02:24:44;10.80;;;1.67;;
74900;SDS011;63461;51.416;6.758;2023-08-07T02:27:11;6.50;;;1.80;;
74900;SDS011;63461;51.416;6.758;2023-08-07T02:29:37;6.68;;;1.85;;
74900;SDS011;63461;51.416;6.758;2023-08-07T02:32:03;10.05;;;2.05;;
74900;SDS011;63461;51.416;6.758;2023-08-07T02:34:29;13.23;;;2.03;;
74900;SDS011;63461;51.416;6.758;2023-08-07T02:36:57;5.63;;;1.73;;
74900;SDS011;63461;51.416;6.758;2023-08-07T02:39:24;8.10;;;1.92;;
74900;SDS011;63461;51.416;6.758;2023-08-07T02:41:50;7.45;;;1.83;;
74900;SDS011;63461;51.416;6.758;2023-08-07T02:44:16;9.18;;;1.92;;
74900;SDS011;63461;51.416;6.758;2023-08-07T02:46:43;7.10;;;1.73;;
74900;SDS011;63461;51.416;6.758;2023-08-07T02:49:08;10.88;;;1.85;;
74900;SDS011;63461;51.416;6.758;2023-08-07T02:51:34;3.03;;;1.40;;
74900;SDS011;63461;51.416;6.758;2023-08-07T02:54:00;11.50;;;3.03;;
74900;SDS011;63461;51.416;6.758;2023-08-07T02:56:26;9.50;;;1.92;;
74900;SDS011;63461;51.416;6.758;2023-08-07T02:58:52;9.15;;;2.00;;
74900;SDS011;63461;51.416;6.758;2023-08-07T03:01:19;8.07;;;1.97;;
74900;SDS011;63461;51.416;6.758;2023-08-07T03:03:45;8.40;;;2.25;;
74900;SDS011;63461;51.416;6.758;2023-08-07T03:06:11;14.47;;;2.73;;
74900;SDS011;63461;51.416;6.758;2023-08-07T03:08:37;9.20;;;2.20;;
74900;SDS011;63461;51.416;6.758;2023-08-07T03:11:02;18.33;;;2.30;;
74900;SDS011;63461;51.416;6.758;2023-08-07T03:13:28;8.73;;;2.10;;
74900;SDS011;63461;51.416;6.758;2023-08-07T03:16:04;10.18;;;1.77;;
74900;SDS011;63461;51.416;6.758;2023-08-07T03:18:31;15.55;;;2.42;;
74900;SDS011;63461;51.416;6.758;2023-08-07T03:20:59;10.50;;;1.90;;
74900;SDS011;63461;51.416;6.758;2023-08-07T03:23:25;10.45;;;1.90;;
74900;SDS011;63461;51.416;6.758;2023-08-07T03:26:06;9.18;;;2.10;;
74900;SDS011;63461;51.416;6.758;2023-08-07T03:28:34;9.57;;;1.95;;
74900;SDS011;63461;51.416;6.758;2023-08-07T03:31:00;8.18;;;1.73;;
74900;SDS011;63461;51.416;6.758;2023-08-07T03:33:29;12.38;;;1.77;;
74900;SDS011;63461;51.416;6.758;2023-08-07T03:35:55;12.13;;;2.47;;
74900;SDS011;63461;51.416;6.758;2023-08-07T03:38:21;11.48;;;2.10;;
74900;SDS011;63461;51.416;6.758;2023-08-07T03:40:50;11.63;;;2.30;;
74900;SDS011;63461;51.416;6.758;2023-08-07T03:43:16;9.48;;;2.40;;
74900;SDS011;63461;51.416;6.758;2023-08-07T03:45:43;9.25;;;2.13;;
74900;SDS011;63461;51.416;6.758;2023-08-07T03:48:09;14.45;;;2.72;;
74900;SDS011;63461;51.416;6.758;2023-08-07T03:50:35;8.85;;;2.25;;
74900;SDS011;63461;51.416;6.758;2023-08-07T03:53:03;9.77;;;2.85;;
74900;SDS011;63461;51.416;6.758;2023-08-07T03:55:34;6.97;;;2.33;;
74900;SDS011;63461;51.416;6.758;2023-08-07T03:58:00;7.55;;;2.20;;
74900;SDS011;63461;51.416;6.758;2023-08-07T04:00:26;12.27;;;2.20;;
74900;SDS011;63461;51.416;6.758;2023-08-07T04:02:52;6.80;;;2.15;;
74900;SDS011;63461;51.416;6.758;2023-08-07T04:05:18;12.55;;;2.28;;
74900;SDS011;63461;51.416;6.758;2023-08-07T04:07:43;10.38;;;2.60;;
74900;SDS011;63461;51.416;6.758;2023-08-07T04:10:09;14.02;;;2.47;;
74900;SDS011;63461;51.416;6.758;2023-08-07T04:12:35;9.45;;;1.90;;
74900;SDS011;63461;51.416;6.758;2023-08-07T04:15:01;13.10;;;2.72;;
74900;SDS011;63461;51.416;6.758;2023-08-07T04:17:27;11.25;;;2.22;;
74900;SDS011;63461;51.416;6.758;2023-08-07T04:19:53;11.30;;;2.70;;
74900;SDS011;63461;51.416;6.758;2023-08-07T04:22:19;8.73;;;1.98;;
74900;SDS011;63461;51.416;6.758;2023-08-07T04:24:45;13.10;;;2.17;;
74900;SDS011;63461;51.416;6.758;2023-08-07T04:27:11;15.07;;;2.50;;
74900;SDS011;63461;51.416;6.758;2023-08-07T04:29:37;9.38;;;2.40;;
74900;SDS011;63461;51.416;6.758;2023-08-07T04:32:03;7.70;;;2.38;;
74900;SDS011;63461;51.416;6.758;2023-08-07T04:34:29;11.33;;;2.30;;
74900;SDS011;63461;51.416;6.758;2023-08-07T04:36:55;13.23;;;3.13;;
74900;SDS011;63461;51.416;6.758;2023-08-07T04:39:21;13.27;;;3.33;;
74900;SDS011;63461;51.416;6.758;2023-08-07T04:41:47;14.98;;;2.47;;
74900;SDS011;63461;51.416;6.758;2023-08-07T04:44:15;12.20;;;2.53;;
74900;SDS011;63461;51.416;6.758;2023-08-07T04:46:41;10.20;;;2.20;;
74900;SDS011;63461;51.416;6.758;2023-08-07T04:49:07;6.43;;;2.10;;
74900;SDS011;63461;51.416;6.758;2023-08-07T04:51:33;11.10;;;2.33;;
74900;SDS011;63461;51.416;6.758;2023-08-07T04:53:58;15.40;;;2.65;;
74900;SDS011;63461;51.416;6.758;2023-08-07T04:56:24;11.27;;;2.65;;
74900;SDS011;63461;51.416;6.758;2023-08-07T04:58:50;14.73;;;2.50;;
74900;SDS011;63461;51.416;6.758;2023-08-07T05:01:16;13.63;;;2.50;;
74900;SDS011;63461;51.416;6.758;2023-08-07T05:03:42;12.45;;;2.40;;
74900;SDS011;63461;51.416;6.758;2023-08-07T05:06:07;11.85;;;2.13;;
74900;SDS011;63461;51.416;6.758;2023-08-07T05:08:33;11.18;;;2.35;;
74900;SDS011;63461;51.416;6.758;2023-08-07T05:10:59;5.93;;;2.10;;
74900;SDS011;63461;51.416;6.758;2023-08-07T05:13:25;10.68;;;2.90;;
74900;SDS011;63461;51.416;6.758;2023-08-07T05:15:50;9.20;;;2.25;;
74900;SDS011;63461;51.416;6.758;2023-08-07T05:18:16;14.90;;;2.95;;
74900;SDS011;63461;51.416;6.758;2023-08-07T05:20:43;9.60;;;3.10;;
74900;SDS011;63461;51.416;6.758;2023-08-07T05:23:09;9.20;;;2.47;;
74900;SDS011;63461;51.416;6.758;2023-08-07T05:25:36;11.93;;;2.53;;
74900;SDS011;63461;51.416;6.758;2023-08-07T05:28:02;13.03;;;2.30;;
74900;SDS011;63461;51.416;6.758;2023-08-07T05:30:28;11.85;;;2.88;;
74900;SDS011;63461;51.416;6.758;2023-08-07T05:32:54;11.25;;;2.33;;
74900;SDS011;63461;51.416;6.758;2023-08-07T05:35:20;9.18;;;2.53;;
74900;SDS011;63461;51.416;6.758;2023-08-07T05:37:45;10.57;;;2.50;;
74900;SDS011;63461;51.416;6.758;2023-08-07T05:40:11;10.80;;;2.40;;
74900;SDS011;63461;51.416;6.758;2023-08-07T05:42:41;10.80;;;2.58;;
74900;SDS011;63461;51.416;6.758;2023-08-07T05:45:07;10.93;;;2.78;;
74900;SDS011;63461;51.416;6.758;2023-08-07T05:47:33;12.98;;;2.83;;
74900;SDS011;63461;51.416;6.758;2023-08-07T05:49:59;8.82;;;2.45;;
74900;SDS011;63461;51.416;6.758;2023-08-07T05:52:28;9.60;;;2.47;;
74900;SDS011;63461;51.416;6.758;2023-08-07T05:54:54;9.87;;;2.80;;
74900;SDS011;63461;51.416;6.758;2023-08-07T05:57:19;11.35;;;2.90;;
74900;SDS011;63461;51.416;6.758;2023-08-07T05:59:45;9.30;;;2.65;;
74900;SDS011;63461;51.416;6.758;2023-08-07T06:02:11;7.03;;;2.10;;
74900;SDS011;63461;51.416;6.758;2023-08-07T06:04:37;10.77;;;2.47;;
74900;SDS011;63461;51.416;6.758;2023-08-07T06:07:04;13.48;;;3.10;;
74900;SDS011;63461;51.416;6.758;2023-08-07T06:09:31;6.82;;;2.05;;
74900;SDS011;63461;51.416;6.758;2023-08-07T06:11:57;8.57;;;2.60;;
74900;SDS011;63461;51.416;6.758;2023-08-07T06:14:22;11.85;;;2.78;;
74900;SDS011;63461;51.416;6.758;2023-08-07T06:16:50;8.45;;;1.95;;
74900;SDS011;63461;51.416;6.758;2023-08-07T06:19:17;9.00;;;2.25;;
74900;SDS011;63461;51.416;6.758;2023-08-07T06:21:43;9.65;;;2.45;;
74900;SDS011;63461;51.416;6.758;2023-08-07T06:24:09;10.00;;;2.80;;
74900;SDS011;63461;51.416;6.758;2023-08-07T06:26:34;12.73;;;2.47;;
74900;SDS011;63461;51.416;6.758;2023-08-07T06:29:00;10.38;;;2.25;;
74900;SDS011;63461;51.416;6.758;2023-08-07T06:31:26;12.13;;;2.17;;
74900;SDS011;63461;51.416;6.758;2023-08-07T06:33:52;11.90;;;2.90;;
74900;SDS011;63461;51.416;6.758;2023-08-07T06:36:18;7.72;;;3.00;;
74900;SDS011;63461;51.416;6.758;2023-08-07T06:38:43;7.17;;;2.17;;
74900;SDS011;63461;51.416;6.758;2023-08-07T06:41:09;6.38;;;2.17;;
74900;SDS011;63461;51.416;6.758;2023-08-07T06:43:35;10.13;;;2.33;;
74900;SDS011;63461;51.416;6.758;2023-08-07T06:46:01;7.87;;;2.10;;
74900;SDS011;63461;51.416;6.758;2023-08-07T06:48:27;12.10;;;2.50;;
74900;SDS011;63461;51.416;6.758;2023-08-07T06:50:52;8.95;;;2.40;;
74900;SDS011;63461;51.416;6.758;2023-08-07T06:53:19;9.82;;;2.40;;
74900;SDS011;63461;51.416;6.758;2023-08-07T06:55:45;9.68;;;2.72;;
74900;SDS011;63461;51.416;6.758;2023-08-07T06:58:11;9.57;;;2.40;;
74900;SDS011;63461;51.416;6.758;2023-08-07T07:00:37;6.75;;;1.92;;
74900;SDS011;63461;51.416;6.758;2023-08-07T07:03:03;2.38;;;1.20;;
74900;SDS011;63461;51.416;6.758;2023-08-07T07:05:30;5.95;;;2.25;;
74900;SDS011;63461;51.416;6.758;2023-08-07T07:07:57;6.35;;;2.10;;
74900;SDS011;63461;51.416;6.758;2023-08-07T07:10:23;10.40;;;2.35;;
74900;SDS011;63461;51.416;6.758;2023-08-07T07:12:48;9.07;;;2.13;;
74900;SDS011;63461;51.416;6.758;2023-08-07T07:15:14;8.60;;;2.33;;
74900;SDS011;63461;51.416;6.758;2023-08-07T07:17:41;10.40;;;2.78;;
74900;SDS011;63461;51.416;6.758;2023-08-07T07:20:06;8.68;;;1.92;;
74900;SDS011;63461;51.416;6.758;2023-08-07T07:22:34;8.18;;;2.50;;
74900;SDS011;63461;51.416;6.758;2023-08-07T07:25:00;10.15;;;2.50;;
74900;SDS011;63461;51.416;6.758;2023-08-07T07:27:27;12.13;;;2.25;;
74900;SDS011;63461;51.416;6.758;2023-08-07T07:29:52;13.65;;;2.55;;
74900;SDS011;63461;51.416;6.758;2023-08-07T07:32:18;9.13;;;2.60;;
74900;SDS011;63461;51.416;6.758;2023-08-07T07:34:44;6.85;;;2.35;;
74900;SDS011;63461;51.416;6.758;2023-08-07T07:37:10;10.32;;;2.35;;
74900;SDS011;63461;51.416;6.758;2023-08-07T07:39:36;5.53;;;2.00;;
74900;SDS011;63461;51.416;6.758;2023-08-07T07:42:02;8.18;;;2.28;;
74900;SDS011;63461;51.416;6.758;2023-08-07T07:44:30;5.88;;;2.20;;
74900;SDS011;63461;51.416;6.758;2023-08-07T07:46:56;15.88;;;3.17;;
74900;SDS011;63461;51.416;6.758;2023-08-07T07:49:22;9.07;;;2.58;;
74900;SDS011;63461;51.416;6.758;2023-08-07T07:51:48;7.22;;;1.63;;
74900;SDS011;63461;51.416;6.758;2023-08-07T07:54:14;9.20;;;2.42;;
74900;SDS011;63461;51.416;6.758;2023-08-07T07:56:40;7.72;;;2.45;;
74900;SDS011;63461;51.416;6.758;2023-08-07T07:59:09;10.13;;;2.33;;
74900;SDS011;63461;51.416;6.758;2023-08-07T08:01:35;8.30;;;2.53;;
74900;SDS011;63461;51.416;6.758;2023-08-07T08:04:01;5.40;;;1.85;;
74900;SDS011;63461;51.416;6.758;2023-08-07T08:06:26;8.38;;;2.00;;
74900;SDS011;63461;51.416;6.758;2023-08-07T08:08:52;7.25;;;2.35;;
74900;SDS011;63461;51.416;6.758;2023-08-07T08:11:18;7.82;;;1.98;;
74900;SDS011;63461;51.416;6.758;2023-08-07T08:13:44;6.80;;;2.20;;
74900;SDS011;63461;51.416;6.758;2023-08-07T08:16:09;9.20;;;1.92;;
74900;SDS011;63461;51.416;6.758;2023-08-07T08:18:35;9.07;;;2.28;;
74900;SDS011;63461;51.416;6.758;2023-08-07T08:21:01;10.70;;;2.08;;
74900;SDS011;63461;51.416;6.758;2023-08-07T08:23:27;7.45;;;2.00;;
74900;SDS011;63461;51.416;6.758;2023-08-07T08:25:52;10.00;;;2.13;;
74900;SDS011;63461;51.416;6.758;2023-08-07T08:28:18;6.00;;;1.95;;
74900;SDS011;63461;51.416;6.758;2023-08-07T08:30:44;5.65;;;2.47;;
74900;SDS011;63461;51.416;6.758;2023-08-07T08:33:10;5.90;;;1.70;;
74900;SDS011;63461;51.416;6.758;2023-08-07T08:35:38;10.00;;;2.08;;
74900;SDS011;63461;51.416;6.758;2023-08-07T08:38:04;11.65;;;2.63;;
74900;SDS011;63461;51.416;6.758;2023-08-07T08:40:33;9.90;;;2.50;;
74900;SDS011;63461;51.416;6.758;2023-08-07T08:43:00;7.97;;;2.10;;
74900;SDS011;63461;51.416;6.758;2023-08-07T08:45:26;7.03;;;2.45;;
74900;SDS011;63461;51.416;6.758;2023-08-07T08:47:59;9.75;;;2.33;;
74900;SDS011;63461;51.416;6.758;2023-08-07T08:50:27;5.95;;;2.00;;
74900;SDS011;63461;51.416;6.758;2023-08-07T08:52:54;6.88;;;2.15;;
74900;SDS011;63461;51.416;6.758;2023-08-07T08:55:21;9.10;;;1.95;;
74900;SDS011;63461;51.416;6.758;2023-08-07T08:57:48;4.25;;;1.75;;
74900;SDS011;63461;51.416;6.758;2023-08-07T09:00:19;7.50;;;1.95;;
74900;SDS011;63461;51.416;6.758;2023-08-07T09:02:47;8.25;;;2.25;;
74900;SDS011;63461;51.416;6.758;2023-08-07T09:05:14;8.45;;;2.55;;
74900;SDS011;63461;51.416;6.758;2023-08-07T09:07:41;10.80;;;2.25;;
74900;SDS011;63461;51.416;6.758;2023-08-07T09:10:08;9.60;;;2.50;;
74900;SDS011;63461;51.416;6.758;2023-08-07T09:12:37;11.18;;;2.03;;
74900;SDS011;63461;51.416;6.758;2023-08-07T09:15:06;10.80;;;2.30;;
74900;SDS011;63461;51.416;6.758;2023-08-07T09:17:38;13.60;;;2.63;;
74900;SDS011;63461;51.416;6.758;2023-08-07T09:20:05;6.55;;;2.03;;
74900;SDS011;63461;51.416;6.758;2023-08-07T09:22:36;7.03;;;2.38;;
74900;SDS011;63461;51.416;6.758;2023-08-07T09:25:02;15.48;;;2.60;;
74900;SDS011;63461;51.416;6.758;2023-08-07T09:27:28;8.65;;;2.95;;
74900;SDS011;63461;51.416;6.758;2023-08-07T09:29:55;10.55;;;2.75;;
74900;SDS011;63461;51.416;6.758;2023-08-07T09:32:22;7.25;;;2.38;;
74900;SDS011;63461;51.416;6.758;2023-08-07T09:34:50;7.85;;;2.40;;
74900;SDS011;63461;51.416;6.758;2023-08-07T09:37:17;8.20;;;1.83;;
74900;SDS011;63461;51.416;6.758;2023-08-07T09:39:42;9.45;;;2.47;;
74900;SDS011;63461;51.416;6.758;2023-08-07T09:42:15;12.15;;;2.60;;
74900;SDS011;63461;51.416;6.758;2023-08-07T09:44:42;11.13;;;2.40;;
74900;SDS011;63461;51.416;6.758;2023-08-07T09:47:15;7.25;;;2.10;;
74900;SDS011;63461;51.416;6.758;2023-08-07T09:49:42;9.38;;;2.38;;
74900;SDS011;63461;51.416;6.758;2023-08-07T09:52:09;13.20;;;2.50;;
74900;SDS011;63461;51.416;6.758;2023-08-07T09:54:40;7.50;;;2.72;;
74900;SDS011;63461;51.416;6.758;2023-08-07T09:57:07;11.48;;;2.70;;
74900;SDS011;63461;51.416;6.758;2023-08-07T09:59:33;12.13;;;2.38;;
74900;SDS011;63461;51.416;6.758;2023-08-07T10:02:02;11.23;;;2.30;;
74900;SDS011;63461;51.416;6.758;2023-08-07T10:04:29;10.18;;;2.83;;
74900;SDS011;63461;51.416;6.758;2023-08-07T10:06:55;5.63;;;1.30;;
74900;SDS011;63461;51.416;6.758;2023-08-07T10:09:22;10.52;;;2.40;;
74900;SDS011;63461;51.416;6.758;2023-08-07T10:11:48;10.63;;;2.25;;
74900;SDS011;63461;51.416;6.758;2023-08-07T10:14:15;13.95;;;2.47;;
74900;SDS011;63461;51.416;6.758;2023-08-07T10:16:42;11.68;;;2.38;;
74900;SDS011;63461;51.416;6.758;2023-08-07T10:19:08;10.10;;;2.50;;
74900;SDS011;63461;51.416;6.758;2023-08-07T10:21:38;10.20;;;2.28;;
74900;SDS011;63461;51.416;6.758;2023-08-07T10:24:04;6.88;;;2.58;;
74900;SDS011;63461;51.416;6.758;2023-08-07T10:26:32;14.75;;;2.47;;
74900;SDS011;63461;51.416;6.758;2023-08-07T10:29:04;9.35;;;2.35;;
74900;SDS011;63461;51.416;6.758;2023-08-07T10:31:32;8.75;;;2.10;;
74900;SDS011;63461;51.416;6.758;2023-08-07T10:34:00;10.82;;;2.45;;
74900;SDS011;63461;51.416;6.758;2023-08-07T10:36:33;8.07;;;1.85;;
74900;SDS011;63461;51.416;6.758;2023-08-07T10:39:05;6.53;;;1.95;;
74900;SDS011;63461;51.416;6.758;2023-08-07T10:41:42;11.93;;;2.42;;
74900;SDS011;63461;51.416;6.758;2023-08-07T10:44:21;8.63;;;1.90;;
74900;SDS011;63461;51.416;6.758;2023-08-07T10:46:52;15.93;;;2.95;;
74900;SDS011;63461;51.416;6.758;2023-08-07T10:49:35;11.75;;;2.70;;
74900;SDS011;63461;51.416;6.758;2023-08-07T10:52:09;13.07;;;2.65;;
74900;SDS011;63461;51.416;6.758;2023-08-07T10:54:48;7.18;;;2.25;;
74900;SDS011;63461;51.416;6.758;2023-08-07T10:57:15;8.73;;;2.20;;
74900;SDS011;63461;51.416;6.758;2023-08-07T11:02:25;13.95;;;2.55;;
74900;SDS011;63461;51.416;6.758;2023-08-07T11:04:54;7.57;;;2.70;;
74900;SDS011;63461;51.416;6.758;2023-08-07T11:07:22;10.50;;;2.65;;
74900;SDS011;63461;51.416;6.758;2023-08-07T11:09:49;9.18;;;2.40;;
74900;SDS011;63461;51.416;6.758;2023-08-07T11:12:15;11.55;;;2.50;;
74900;SDS011;63461;51.416;6.758;2023-08-07T11:14:41;9.15;;;2.88;;
74900;SDS011;63461;51.416;6.758;2023-08-07T11:17:07;7.68;;;2.50;;
74900;SDS011;63461;51.416;6.758;2023-08-07T11:19:33;11.30;;;2.60;;
74900;SDS011;63461;51.416;6.758;2023-08-07T11:21:59;11.57;;;2.05;;
74900;SDS011;63461;51.416;6.758;2023-08-07T11:24:26;7.57;;;2.20;;
74900;SDS011;63461;51.416;6.758;2023-08-07T11:26:53;5.95;;;1.90;;
74900;SDS011;63461;51.416;6.758;2023-08-07T11:29:21;6.88;;;1.95;;
74900;SDS011;63461;51.416;6.758;2023-08-07T11:31:49;11.80;;;2.00;;
74900;SDS011;63461;51.416;6.758;2023-08-07T11:34:19;12.32;;;1.60;;
74900;SDS011;63461;51.416;6.758;2023-08-07T11:36:45;5.93;;;1.90;;
74900;SDS011;63461;51.416;6.758;2023-08-07T11:39:13;9.07;;;2.63;;
74900;SDS011;63461;51.416;6.758;2023-08-07T11:41:39;13.10;;;2.28;;
74900;SDS011;63461;51.416;6.758;2023-08-07T11:44:08;6.57;;;1.92;;
74900;SDS011;63461;51.416;6.758;2023-08-07T11:46:35;9.40;;;2.10;;
74900;SDS011;63461;51.416;6.758;2023-08-07T11:49:01;9.20;;;1.88;;
74900;SDS011;63461;51.416;6.758;2023-08-07T11:51:29;9.88;;;2.00;;
74900;SDS011;63461;51.416;6.758;2023-08-07T11:53:55;9.77;;;2.00;;
74900;SDS011;63461;51.416;6.758;2023-08-07T11:56:24;9.60;;;1.65;;
74900;SDS011;63461;51.416;6.758;2023-08-07T11:58:50;9.93;;;2.22;;
74900;SDS011;63461;51.416;6.758;2023-08-07T12:01:18;7.78;;;2.10;;
74900;SDS011;63461;51.416;6.758;2023-08-07T12:06:23;8.02;;;1.92;;
74900;SDS011;63461;51.416;6.758;2023-08-07T12:08:50;9.07;;;2.30;;
74900;SDS011;63461;51.416;6.758;2023-08-07T12:11:19;7.35;;;1.90;;
74900;SDS011;63461;51.416;6.758;2023-08-07T12:13:46;7.25;;;1.75;;
74900;SDS011;63461;51.416;6.758;2023-08-07T12:16:13;6.72;;;1.85;;
74900;SDS011;63461;51.416;6.758;2023-08-07T12:18:46;5.75;;;1.73;;
74900;SDS011;63461;51.416;6.758;2023-08-07T12:21:16;9.10;;;1.92;;
74900;SDS011;63461;51.416;6.758;2023-08-07T12:23:48;7.78;;;1.75;;
74900;SDS011;63461;51.416;6.758;2023-08-07T12:26:14;8.38;;;1.63;;
74900;SDS011;63461;51.416;6.758;2023-08-07T12:28:40;6.85;;;2.00;;
74900;SDS011;63461;51.416;6.758;2023-08-07T12:31:06;7.28;;;1.55;;
74900;SDS011;63461;51.416;6.758;2023-08-07T12:33:32;3.72;;;1.20;;
74900;SDS011;63461;51.416;6.758;2023-08-07T12:35:58;7.82;;;1.63;;
74900;SDS011;63461;51.416;6.758;2023-08-07T12:38:25;5.22;;;1.73;;
74900;SDS011;63461;51.416;6.758;2023-08-07T12:40:51;13.60;;;2.33;;
74900;SDS011;63461;51.416;6.758;2023-08-07T12:43:17;7.47;;;1.50;;
74900;SDS011;63461;51.416;6.758;2023-08-07T12:45:43;7.07;;;1.88;;
74900;SDS011;63461;51.416;6.758;2023-08-07T12:48:09;8.95;;;1.42;;
74900;SDS011;63461;51.416;6.758;2023-08-07T12:50:35;6.25;;;1.90;;
74900;SDS011;63461;51.416;6.758;2023-08-07T12:53:01;9.10;;;1.75;;
74900;SDS011;63461;51.416;6.758;2023-08-07T12:55:27;7.18;;;1.50;;
74900;SDS011;63461;51.416;6.758;2023-08-07T12:57:54;7.50;;;1.45;;
74900;SDS011;63461;51.416;6.758;2023-08-07T13:00:20;4.60;;;1.38;;
74900;SDS011;63461;51.416;6.758;2023-08-07T13:02:46;6.28;;;1.30;;
74900;SDS011;63461;51.416;6.758;2023-08-07T13:05:14;7.88;;;1.63;;
74900;SDS011;63461;51.416;6.758;2023-08-07T13:07:41;7.43;;;1.50;;
74900;SDS011;63461;51.416;6.758;2023-08-07T13:10:08;5.85;;;1.75;;
74900;SDS011;63461;51.416;6.758;2023-08-07T13:12:36;5.95;;;1.00;;
74900;SDS011;63461;51.416;6.758;2023-08-07T13:15:03;7.18;;;2.10;;
74900;SDS011;63461;51.416;6.758;2023-08-07T13:17:31;6.97;;;1.52;;
74900;SDS011;63461;51.416;6.758;2023-08-07T13:19:57;4.95;;;1.35;;
74900;SDS011;63461;51.416;6.758;2023-08-07T13:22:24;3.40;;;1.38;;
74900;SDS011;63461;51.416;6.758;2023-08-07T13:24:50;5.50;;;1.30;;
74900;SDS011;63461;51.416;6.758;2023-08-07T13:27:16;4.68;;;1.63;;
74900;SDS011;63461;51.416;6.758;2023-08-07T13:29:41;4.07;;;1.30;;
74900;SDS011;63461;51.416;6.758;2023-08-07T13:32:07;7.90;;;1.70;;
74900;SDS011;63461;51.416;6.758;2023-08-07T13:34:36;5.10;;;1.35;;
74900;SDS011;63461;51.416;6.758;2023-08-07T13:37:03;2.55;;;1.20;;
74900;SDS011;63461;51.416;6.758;2023-08-07T13:39:32;5.75;;;1.42;;
74900;SDS011;63461;51.416;6.758;2023-08-07T13:41:58;6.07;;;1.48;;
74900;SDS011;63461;51.416;6.758;2023-08-07T13:44:27;9.18;;;1.50;;
74900;SDS011;63461;51.416;6.758;2023-08-07T13:46:53;4.20;;;1.40;;
74900;SDS011;63461;51.416;6.758;2023-08-07T13:49:21;7.80;;;1.80;;
74900;SDS011;63461;51.416;6.758;2023-08-07T13:51:48;7.18;;;1.45;;
74900;SDS011;63461;51.416;6.758;2023-08-07T13:54:15;2.88;;;1.30;;
74900;SDS011;63461;51.416;6.758;2023-08-07T13:56:41;5.78;;;1.60;;
74900;SDS011;63461;51.416;6.758;2023-08-07T13:59:07;9.02;;;1.80;;
74900;SDS011;63461;51.416;6.758;2023-08-07T14:01:34;6.63;;;1.48;;
74900;SDS011;63461;51.416;6.758;2023-08-07T14:04:01;4.25;;;1.17;;
74900;SDS011;63461;51.416;6.758;2023-08-07T14:06:27;3.55;;;1.50;;
74900;SDS011;63461;51.416;6.758;2023-08-07T14:08:53;4.60;;;1.52;;
74900;SDS011;63461;51.416;6.758;2023-08-07T14:11:19;3.88;;;1.30;;
74900;SDS011;63461;51.416;6.758;2023-08-07T14:13:45;6.22;;;1.27;;
74900;SDS011;63461;51.416;6.758;2023-08-07T14:16:11;4.70;;;1.42;;
74900;SDS011;63461;51.416;6.758;2023-08-07T14:18:37;5.03;;;1.10;;
74900;SDS011;63461;51.416;6.758;2023-08-07T14:21:03;2.88;;;1.23;;
74900;SDS011;63461;51.416;6.758;2023-08-07T14:23:29;5.05;;;1.33;;
74900;SDS011;63461;51.416;6.758;2023-08-07T14:25:56;5.72;;;1.40;;
74900;SDS011;63461;51.416;6.758;2023-08-07T14:28:22;3.47;;;1.15;;
74900;SDS011;63461;51.416;6.758;2023-08-07T14:30:48;1.80;;;1.02;;
74900;SDS011;63461;51.416;6.758;2023-08-07T14:33:14;2.40;;;1.20;;
74900;SDS011;63461;51.416;6.758;2023-08-07T14:35:40;4.20;;;1.30;;
74900;SDS011;63461;51.416;6.758;2023-08-07T14:38:06;8.45;;;1.38;;
74900;SDS011;63461;51.416;6.758;2023-08-07T14:40:32;5.65;;;1.30;;
74900;SDS011;63461;51.416;6.758;2023-08-07T14:42:58;3.65;;;1.52;;
74900;SDS011;63461;51.416;6.758;2023-08-07T14:45:23;4.53;;;1.40;;
74900;SDS011;63461;51.416;6.758;2023-08-07T14:47:50;3.53;;;1.40;;
74900;SDS011;63461;51.416;6.758;2023-08-07T14:50:16;5.18;;;1.40;;
74900;SDS011;63461;51.416;6.758;2023-08-07T14:52:42;4.55;;;1.30;;
74900;SDS011;63461;51.416;6.758;2023-08-07T14:55:08;4.65;;;1.20;;